sensor_id;sensor_type;location;lat;lon;timestamp;P1;durP1;ratioP1;P2;durP2;ratioP2
45762;SDS011;37512;52.408;13.356;2023-03-14T00:03:33;1.98;;;0.85;;
45762;SDS011;37512;52.408;13.356;2023-03-14T00:07:35;0.70;;;0.65;;
45762;SDS011;37512;52.408;13.356;2023-03-14T00:11:38;1.30;;;1.00;;
45762;SDS011;37512;52.408;13.356;2023-03-14T00:15:40;2.13;;;0.90;;
45762;SDS011;37512;52.408;13.356;2023-03-14T00:19:41;1.10;;;0.80;;
45762;SDS011;37512;52.408;13.356;2023-03-14T00:23:43;2.20;;;1.10;;
45762;SDS011;37512;52.408;13.356;2023-03-14T00:27:44;1.45;;;1.02;;
45762;SDS011;37512;52.408;13.356;2023-03-14T00:31:46;1.17;;;0.70;;
45762;SDS011;37512;52.408;13.356;2023-03-14T00:35:54;1.45;;;0.93;;
45762;SDS011;37512;52.408;13.356;2023-03-14T00:39:59;2.10;;;1.25;;
45762;SDS011;37512;52.408;13.356;2023-03-14T00:44:01;1.60;;;1.10;;
45762;SDS011;37512;52.408;13.356;2023-03-14T00:48:03;0.90;;;0.80;;
45762;SDS011;37512;52.408;13.356;2023-03-14T00:52:04;0.98;;;0.77;;
45762;SDS011;37512;52.408;13.356;2023-03-14T00:56:07;1.05;;;0.90;;
45762;SDS011;37512;52.408;13.356;2023-03-14T01:00:11;0.82;;;0.68;;
45762;SDS011;37512;52.408;13.356;2023-03-14T01:04:14;1.75;;;1.05;;
45762;SDS011;37512;52.408;13.356;2023-03-14T01:08:16;0.93;;;0.80;;
45762;SDS011;37512;52.408;13.356;2023-03-14T01:12:18;2.53;;;0.80;;
45762;SDS011;37512;52.408;13.356;2023-03-14T01:16:20;1.63;;;1.00;;
45762;SDS011;37512;52.408;13.356;2023-03-14T01:20:23;2.65;;;1.10;;
45762;SDS011;37512;52.408;13.356;2023-03-14T01:24:25;0.85;;;0.80;;
45762;SDS011;37512;52.408;13.356;2023-03-14T01:28:26;1.30;;;1.00;;
45762;SDS011;37512;52.408;13.356;2023-03-14T01:32:28;3.67;;;1.20;;
45762;SDS011;37512;52.408;13.356;2023-03-14T01:36:29;2.97;;;0.80;;
45762;SDS011;37512;52.408;13.356;2023-03-14T01:40:32;2.38;;;1.00;;
45762;SDS011;37512;52.408;13.356;2023-03-14T01:53:06;2.15;;;0.80;;
45762;SDS011;37512;52.408;13.356;2023-03-14T01:57:19;1.42;;;1.00;;
45762;SDS011;37512;52.408;13.356;2023-03-14T02:01:23;1.23;;;1.00;;
45762;SDS011;37512;52.408;13.356;2023-03-14T02:05:32;1.00;;;0.77;;
45762;SDS011;37512;52.408;13.356;2023-03-14T02:09:37;3.63;;;1.10;;
45762;SDS011;37512;52.408;13.356;2023-03-14T02:13:40;1.20;;;0.98;;
45762;SDS011;37512;52.408;13.356;2023-03-14T02:17:41;2.30;;;0.80;;
45762;SDS011;37512;52.408;13.356;2023-03-14T02:22:00;2.25;;;1.20;;
45762;SDS011;37512;52.408;13.356;2023-03-14T02:26:11;1.23;;;0.95;;
45762;SDS011;37512;52.408;13.356;2023-03-14T02:34:25;1.90;;;0.93;;
45762;SDS011;37512;52.408;13.356;2023-03-14T02:42:40;1.02;;;0.77;;
45762;SDS011;37512;52.408;13.356;2023-03-14T02:46:42;1.42;;;0.85;;
45762;SDS011;37512;52.408;13.356;2023-03-14T02:50:45;1.85;;;0.77;;
45762;SDS011;37512;52.408;13.356;2023-03-14T02:54:48;1.33;;;0.98;;
45762;SDS011;37512;52.408;13.356;2023-03-14T02:58:49;2.10;;;0.90;;
45762;SDS011;37512;52.408;13.356;2023-03-14T03:02:51;1.33;;;0.70;;
45762;SDS011;37512;52.408;13.356;2023-03-14T03:06:53;1.55;;;0.85;;
45762;SDS011;37512;52.408;13.356;2023-03-14T03:10:54;1.05;;;0.80;;
45762;SDS011;37512;52.408;13.356;2023-03-14T03:14:58;2.50;;;0.80;;
45762;SDS011;37512;52.408;13.356;2023-03-14T03:18:59;1.50;;;1.02;;
45762;SDS011;37512;52.408;13.356;2023-03-14T03:23:01;3.70;;;0.80;;
45762;SDS011;37512;52.408;13.356;2023-03-14T03:27:03;1.83;;;0.98;;
45762;SDS011;37512;52.408;13.356;2023-03-14T03:31:08;1.33;;;0.82;;
45762;SDS011;37512;52.408;13.356;2023-03-14T03:35:12;3.22;;;0.90;;
45762;SDS011;37512;52.408;13.356;2023-03-14T03:39:13;1.23;;;0.80;;
45762;SDS011;37512;52.408;13.356;2023-03-14T03:43:15;1.17;;;1.00;;
45762;SDS011;37512;52.408;13.356;2023-03-14T03:47:16;0.70;;;0.65;;
45762;SDS011;37512;52.408;13.356;2023-03-14T03:51:18;0.98;;;0.73;;
45762;SDS011;37512;52.408;13.356;2023-03-14T03:55:19;1.50;;;0.80;;
45762;SDS011;37512;52.408;13.356;2023-03-14T03:59:21;2.55;;;1.08;;
45762;SDS011;37512;52.408;13.356;2023-03-14T04:03:22;1.00;;;0.75;;
45762;SDS011;37512;52.408;13.356;2023-03-14T04:07:24;1.70;;;0.80;;
45762;SDS011;37512;52.408;13.356;2023-03-14T04:11:26;1.63;;;1.38;;
45762;SDS011;37512;52.408;13.356;2023-03-14T04:15:27;1.40;;;0.80;;
45762;SDS011;37512;52.408;13.356;2023-03-14T04:19:29;0.90;;;0.68;;
45762;SDS011;37512;52.408;13.356;2023-03-14T04:23:30;0.52;;;0.50;;
45762;SDS011;37512;52.408;13.356;2023-03-14T04:27:32;1.10;;;0.93;;
45762;SDS011;37512;52.408;13.356;2023-03-14T04:31:34;1.55;;;0.90;;
45762;SDS011;37512;52.408;13.356;2023-03-14T04:35:35;1.67;;;1.17;;
45762;SDS011;37512;52.408;13.356;2023-03-14T04:39:37;0.95;;;0.73;;
45762;SDS011;37512;52.408;13.356;2023-03-14T04:43:38;1.30;;;0.82;;
45762;SDS011;37512;52.408;13.356;2023-03-14T04:47:40;0.75;;;0.65;;
45762;SDS011;37512;52.408;13.356;2023-03-14T04:51:41;2.00;;;1.13;;
45762;SDS011;37512;52.408;13.356;2023-03-14T04:55:50;1.17;;;0.90;;
45762;SDS011;37512;52.408;13.356;2023-03-14T04:59:52;2.70;;;0.80;;
45762;SDS011;37512;52.408;13.356;2023-03-14T05:03:54;3.05;;;1.17;;
45762;SDS011;37512;52.408;13.356;2023-03-14T05:07:55;1.27;;;0.80;;
45762;SDS011;37512;52.408;13.356;2023-03-14T05:11:57;0.63;;;0.50;;
45762;SDS011;37512;52.408;13.356;2023-03-14T05:16:05;1.45;;;0.75;;
45762;SDS011;37512;52.408;13.356;2023-03-14T05:20:09;2.15;;;1.05;;
45762;SDS011;37512;52.408;13.356;2023-03-14T05:24:13;1.75;;;1.17;;
45762;SDS011;37512;52.408;13.356;2023-03-14T05:28:15;1.15;;;1.00;;
45762;SDS011;37512;52.408;13.356;2023-03-14T05:32:16;0.90;;;0.77;;
45762;SDS011;37512;52.408;13.356;2023-03-14T05:36:18;3.03;;;1.00;;
45762;SDS011;37512;52.408;13.356;2023-03-14T05:40:19;2.42;;;0.85;;
45762;SDS011;37512;52.408;13.356;2023-03-14T05:44:21;1.92;;;0.90;;
45762;SDS011;37512;52.408;13.356;2023-03-14T05:48:22;2.50;;;0.75;;
45762;SDS011;37512;52.408;13.356;2023-03-14T05:52:24;1.17;;;0.75;;
45762;SDS011;37512;52.408;13.356;2023-03-14T05:56:25;1.83;;;1.10;;
45762;SDS011;37512;52.408;13.356;2023-03-14T06:00:27;1.17;;;0.90;;
45762;SDS011;37512;52.408;13.356;2023-03-14T06:04:28;1.85;;;0.80;;
45762;SDS011;37512;52.408;13.356;2023-03-14T06:08:30;4.65;;;0.85;;
45762;SDS011;37512;52.408;13.356;2023-03-14T06:12:32;2.42;;;1.42;;
45762;SDS011;37512;52.408;13.356;2023-03-14T06:16:33;1.20;;;0.88;;
45762;SDS011;37512;52.408;13.356;2023-03-14T06:20:35;3.33;;;1.45;;
45762;SDS011;37512;52.408;13.356;2023-03-14T06:24:40;1.10;;;0.63;;
45762;SDS011;37512;52.408;13.356;2023-03-14T06:28:41;2.60;;;1.20;;
45762;SDS011;37512;52.408;13.356;2023-03-14T06:32:43;4.13;;;1.35;;
45762;SDS011;37512;52.408;13.356;2023-03-14T06:36:44;1.63;;;1.00;;
45762;SDS011;37512;52.408;13.356;2023-03-14T06:40:46;2.55;;;0.90;;
45762;SDS011;37512;52.408;13.356;2023-03-14T06:44:47;2.45;;;0.88;;
45762;SDS011;37512;52.408;13.356;2023-03-14T06:48:49;1.65;;;0.80;;
45762;SDS011;37512;52.408;13.356;2023-03-14T06:52:51;2.13;;;1.25;;
45762;SDS011;37512;52.408;13.356;2023-03-14T06:56:52;4.47;;;1.38;;
45762;SDS011;37512;52.408;13.356;2023-03-14T07:00:54;0.65;;;0.65;;
45762;SDS011;37512;52.408;13.356;2023-03-14T07:04:55;2.45;;;1.05;;
45762;SDS011;37512;52.408;13.356;2023-03-14T07:08:57;1.95;;;1.00;;
45762;SDS011;37512;52.408;13.356;2023-03-14T07:12:59;1.15;;;0.80;;
45762;SDS011;37512;52.408;13.356;2023-03-14T07:17:00;2.92;;;1.17;;
45762;SDS011;37512;52.408;13.356;2023-03-14T07:21:02;3.47;;;0.80;;
45762;SDS011;37512;52.408;13.356;2023-03-14T07:25:03;3.25;;;0.88;;
45762;SDS011;37512;52.408;13.356;2023-03-14T07:29:07;1.63;;;0.90;;
45762;SDS011;37512;52.408;13.356;2023-03-14T07:33:09;3.30;;;1.00;;
45762;SDS011;37512;52.408;13.356;2023-03-14T07:37:11;3.70;;;1.08;;
45762;SDS011;37512;52.408;13.356;2023-03-14T07:41:13;1.95;;;0.70;;
45762;SDS011;37512;52.408;13.356;2023-03-14T07:45:15;6.10;;;1.95;;
45762;SDS011;37512;52.408;13.356;2023-03-14T07:49:18;3.28;;;1.10;;
45762;SDS011;37512;52.408;13.356;2023-03-14T07:53:20;6.13;;;1.20;;
45762;SDS011;37512;52.408;13.356;2023-03-14T07:57:22;2.17;;;1.08;;
45762;SDS011;37512;52.408;13.356;2023-03-14T08:01:25;2.38;;;0.82;;
45762;SDS011;37512;52.408;13.356;2023-03-14T08:05:27;4.18;;;1.02;;
45762;SDS011;37512;52.408;13.356;2023-03-14T08:09:28;4.10;;;1.35;;
45762;SDS011;37512;52.408;13.356;2023-03-14T08:13:30;6.97;;;1.40;;
45762;SDS011;37512;52.408;13.356;2023-03-14T08:17:32;4.22;;;0.98;;
45762;SDS011;37512;52.408;13.356;2023-03-14T08:21:33;4.30;;;0.85;;
45762;SDS011;37512;52.408;13.356;2023-03-14T08:25:35;2.60;;;0.95;;
45762;SDS011;37512;52.408;13.356;2023-03-14T08:29:36;1.88;;;0.68;;
45762;SDS011;37512;52.408;13.356;2023-03-14T08:33:38;3.22;;;1.00;;
45762;SDS011;37512;52.408;13.356;2023-03-14T08:37:40;1.42;;;0.75;;
45762;SDS011;37512;52.408;13.356;2023-03-14T08:41:42;6.18;;;1.35;;
45762;SDS011;37512;52.408;13.356;2023-03-14T08:45:45;3.28;;;0.98;;
45762;SDS011;37512;52.408;13.356;2023-03-14T08:49:47;3.15;;;1.00;;
45762;SDS011;37512;52.408;13.356;2023-03-14T08:53:48;3.70;;;1.13;;
45762;SDS011;37512;52.408;13.356;2023-03-14T08:57:50;3.88;;;1.10;;
45762;SDS011;37512;52.408;13.356;2023-03-14T09:01:51;5.78;;;1.23;;
45762;SDS011;37512;52.408;13.356;2023-03-14T09:05:53;5.30;;;1.02;;
45762;SDS011;37512;52.408;13.356;2023-03-14T09:09:54;2.90;;;1.00;;
45762;SDS011;37512;52.408;13.356;2023-03-14T09:13:56;1.90;;;1.25;;
45762;SDS011;37512;52.408;13.356;2023-03-14T09:17:57;2.95;;;1.60;;
45762;SDS011;37512;52.408;13.356;2023-03-14T09:21:59;1.27;;;0.82;;
45762;SDS011;37512;52.408;13.356;2023-03-14T09:26:01;4.03;;;1.25;;
45762;SDS011;37512;52.408;13.356;2023-03-14T09:30:03;2.88;;;0.90;;
45762;SDS011;37512;52.408;13.356;2023-03-14T09:34:05;2.17;;;1.30;;
45762;SDS011;37512;52.408;13.356;2023-03-14T09:38:06;7.55;;;1.20;;
45762;SDS011;37512;52.408;13.356;2023-03-14T09:42:08;2.47;;;0.85;;
45762;SDS011;37512;52.408;13.356;2023-03-14T09:46:15;1.10;;;0.85;;
45762;SDS011;37512;52.408;13.356;2023-03-14T09:50:17;4.70;;;0.90;;
45762;SDS011;37512;52.408;13.356;2023-03-14T09:58:35;2.72;;;0.82;;
45762;SDS011;37512;52.408;13.356;2023-03-14T10:02:41;3.30;;;0.90;;
45762;SDS011;37512;52.408;13.356;2023-03-14T10:06:47;2.58;;;1.20;;
45762;SDS011;37512;52.408;13.356;2023-03-14T10:10:49;1.42;;;0.95;;
45762;SDS011;37512;52.408;13.356;2023-03-14T10:14:51;2.15;;;1.00;;
45762;SDS011;37512;52.408;13.356;2023-03-14T10:18:58;0.75;;;0.63;;
45762;SDS011;37512;52.408;13.356;2023-03-14T10:23:05;1.63;;;0.90;;
45762;SDS011;37512;52.408;13.356;2023-03-14T10:27:21;1.08;;;0.73;;
45762;SDS011;37512;52.408;13.356;2023-03-14T10:31:36;1.83;;;1.00;;
45762;SDS011;37512;52.408;13.356;2023-03-14T10:35:57;1.13;;;0.88;;
45762;SDS011;37512;52.408;13.356;2023-03-14T10:40:02;2.13;;;0.80;;
45762;SDS011;37512;52.408;13.356;2023-03-14T10:44:07;1.00;;;0.57;;
45762;SDS011;37512;52.408;13.356;2023-03-14T10:52:19;0.55;;;0.55;;
45762;SDS011;37512;52.408;13.356;2023-03-14T10:56:36;2.03;;;0.70;;
45762;SDS011;37512;52.408;13.356;2023-03-14T11:00:39;3.05;;;1.00;;
45762;SDS011;37512;52.408;13.356;2023-03-14T11:09:12;1.48;;;0.70;;
45762;SDS011;37512;52.408;13.356;2023-03-14T11:18:45;1.58;;;0.60;;
45762;SDS011;37512;52.408;13.356;2023-03-14T11:22:55;2.35;;;0.93;;
45762;SDS011;37512;52.408;13.356;2023-03-14T11:31:45;1.88;;;1.05;;
45762;SDS011;37512;52.408;13.356;2023-03-14T11:35:53;2.15;;;0.90;;
45762;SDS011;37512;52.408;13.356;2023-03-14T11:40:18;2.30;;;1.20;;
45762;SDS011;37512;52.408;13.356;2023-03-14T11:44:30;2.53;;;0.95;;
45762;SDS011;37512;52.408;13.356;2023-03-14T11:48:37;1.00;;;0.60;;
45762;SDS011;37512;52.408;13.356;2023-03-14T11:52:56;1.17;;;0.80;;
45762;SDS011;37512;52.408;13.356;2023-03-14T11:57:03;2.67;;;0.93;;
45762;SDS011;37512;52.408;13.356;2023-03-14T12:01:11;0.60;;;0.60;;
45762;SDS011;37512;52.408;13.356;2023-03-14T12:09:39;2.97;;;0.80;;
45762;SDS011;37512;52.408;13.356;2023-03-14T12:13:41;1.60;;;0.77;;
45762;SDS011;37512;52.408;13.356;2023-03-14T12:17:56;2.80;;;0.60;;
45762;SDS011;37512;52.408;13.356;2023-03-14T12:22:08;1.45;;;0.57;;
45762;SDS011;37512;52.408;13.356;2023-03-14T12:26:15;1.52;;;0.70;;
45762;SDS011;37512;52.408;13.356;2023-03-14T12:34:33;2.55;;;0.80;;
45762;SDS011;37512;52.408;13.356;2023-03-14T12:38:48;2.42;;;0.88;;
45762;SDS011;37512;52.408;13.356;2023-03-14T12:42:59;1.45;;;0.95;;
45762;SDS011;37512;52.408;13.356;2023-03-14T12:51:34;5.60;;;0.88;;
45762;SDS011;37512;52.408;13.356;2023-03-14T13:00:18;1.83;;;0.70;;
45762;SDS011;37512;52.408;13.356;2023-03-14T13:04:32;0.95;;;0.60;;
45762;SDS011;37512;52.408;13.356;2023-03-14T13:08:41;3.83;;;0.70;;
45762;SDS011;37512;52.408;13.356;2023-03-14T13:12:55;0.55;;;0.55;;
45762;SDS011;37512;52.408;13.356;2023-03-14T13:17:00;1.13;;;0.93;;
45762;SDS011;37512;52.408;13.356;2023-03-14T13:21:24;1.02;;;0.47;;
45762;SDS011;37512;52.408;13.356;2023-03-14T13:25:34;0.73;;;0.50;;
45762;SDS011;37512;52.408;13.356;2023-03-14T13:29:37;0.50;;;0.50;;
45762;SDS011;37512;52.408;13.356;2023-03-14T13:33:38;0.40;;;0.40;;
45762;SDS011;37512;52.408;13.356;2023-03-14T13:37:41;0.60;;;0.50;;
45762;SDS011;37512;52.408;13.356;2023-03-14T13:41:43;0.52;;;0.50;;
45762;SDS011;37512;52.408;13.356;2023-03-14T13:45:52;0.70;;;0.47;;
45762;SDS011;37512;52.408;13.356;2023-03-14T13:49:57;1.65;;;0.60;;
45762;SDS011;37512;52.408;13.356;2023-03-14T13:53:59;2.13;;;0.82;;
45762;SDS011;37512;52.408;13.356;2023-03-14T13:58:04;1.33;;;0.70;;
45762;SDS011;37512;52.408;13.356;2023-03-14T14:02:10;0.95;;;0.50;;
45762;SDS011;37512;52.408;13.356;2023-03-14T14:10:26;0.32;;;0.30;;
45762;SDS011;37512;52.408;13.356;2023-03-14T14:14:39;1.13;;;0.60;;
45762;SDS011;37512;52.408;13.356;2023-03-14T14:18:49;2.72;;;0.40;;
45762;SDS011;37512;52.408;13.356;2023-03-14T14:22:52;1.65;;;0.43;;
45762;SDS011;37512;52.408;13.356;2023-03-14T14:26:55;0.77;;;0.75;;
45762;SDS011;37512;52.408;13.356;2023-03-14T14:31:15;0.40;;;0.40;;
45762;SDS011;37512;52.408;13.356;2023-03-14T14:35:30;0.53;;;0.50;;
45762;SDS011;37512;52.408;13.356;2023-03-14T14:39:34;0.55;;;0.50;;
45762;SDS011;37512;52.408;13.356;2023-03-14T14:43:36;0.38;;;0.38;;
45762;SDS011;37512;52.408;13.356;2023-03-14T14:51:59;0.88;;;0.60;;
45762;SDS011;37512;52.408;13.356;2023-03-14T14:56:19;1.17;;;0.60;;
45762;SDS011;37512;52.408;13.356;2023-03-14T15:00:26;0.45;;;0.45;;
45762;SDS011;37512;52.408;13.356;2023-03-14T15:04:31;0.95;;;0.63;;
45762;SDS011;37512;52.408;13.356;2023-03-14T15:08:33;1.65;;;0.40;;
45762;SDS011;37512;52.408;13.356;2023-03-14T15:12:34;2.45;;;0.80;;
45762;SDS011;37512;52.408;13.356;2023-03-14T15:16:36;1.67;;;0.75;;
45762;SDS011;37512;52.408;13.356;2023-03-14T15:20:37;11.88;;;1.08;;
45762;SDS011;37512;52.408;13.356;2023-03-14T15:24:42;0.50;;;0.50;;
45762;SDS011;37512;52.408;13.356;2023-03-14T15:28:44;1.92;;;0.88;;
45762;SDS011;37512;52.408;13.356;2023-03-14T15:32:47;1.10;;;0.80;;
45762;SDS011;37512;52.408;13.356;2023-03-14T15:36:48;0.77;;;0.73;;
45762;SDS011;37512;52.408;13.356;2023-03-14T15:40:50;0.55;;;0.55;;
45762;SDS011;37512;52.408;13.356;2023-03-14T15:44:53;0.68;;;0.55;;
45762;SDS011;37512;52.408;13.356;2023-03-14T15:48:54;0.77;;;0.77;;
45762;SDS011;37512;52.408;13.356;2023-03-14T15:52:56;0.60;;;0.60;;
45762;SDS011;37512;52.408;13.356;2023-03-14T15:56:58;0.60;;;0.60;;
45762;SDS011;37512;52.408;13.356;2023-03-14T16:01:00;0.60;;;0.60;;
45762;SDS011;37512;52.408;13.356;2023-03-14T16:05:03;1.42;;;1.00;;
45762;SDS011;37512;52.408;13.356;2023-03-14T16:09:07;1.00;;;0.70;;
45762;SDS011;37512;52.408;13.356;2023-03-14T16:13:08;0.70;;;0.70;;
45762;SDS011;37512;52.408;13.356;2023-03-14T16:17:10;0.50;;;0.50;;
45762;SDS011;37512;52.408;13.356;2023-03-14T16:21:13;0.77;;;0.75;;
45762;SDS011;37512;52.408;13.356;2023-03-14T16:25:17;0.80;;;0.70;;
45762;SDS011;37512;52.408;13.356;2023-03-14T16:29:19;1.15;;;0.90;;
45762;SDS011;37512;52.408;13.356;2023-03-14T16:33:22;0.50;;;0.50;;
45762;SDS011;37512;52.408;13.356;2023-03-14T16:37:24;1.85;;;0.50;;
45762;SDS011;37512;52.408;13.356;2023-03-14T16:41:27;2.38;;;0.80;;
45762;SDS011;37512;52.408;13.356;2023-03-14T16:45:31;1.05;;;0.60;;
45762;SDS011;37512;52.408;13.356;2023-03-14T16:49:32;0.55;;;0.55;;
45762;SDS011;37512;52.408;13.356;2023-03-14T16:53:34;0.60;;;0.60;;
45762;SDS011;37512;52.408;13.356;2023-03-14T16:57:36;0.52;;;0.52;;
45762;SDS011;37512;52.408;13.356;2023-03-14T17:01:37;1.00;;;0.70;;
45762;SDS011;37512;52.408;13.356;2023-03-14T17:05:44;0.75;;;0.63;;
45762;SDS011;37512;52.408;13.356;2023-03-14T17:09:50;0.80;;;0.80;;
45762;SDS011;37512;52.408;13.356;2023-03-14T17:13:54;1.20;;;1.00;;
45762;SDS011;37512;52.408;13.356;2023-03-14T17:17:55;2.75;;;1.48;;
45762;SDS011;37512;52.408;13.356;2023-03-14T17:21:57;0.95;;;0.82;;
45762;SDS011;37512;52.408;13.356;2023-03-14T17:26:18;2.13;;;1.25;;
45762;SDS011;37512;52.408;13.356;2023-03-14T17:30:20;1.90;;;1.13;;
45762;SDS011;37512;52.408;13.356;2023-03-14T17:34:21;2.13;;;1.70;;
45762;SDS011;37512;52.408;13.356;2023-03-14T17:38:23;3.85;;;1.40;;
45762;SDS011;37512;52.408;13.356;2023-03-14T17:42:24;1.88;;;1.10;;
45762;SDS011;37512;52.408;13.356;2023-03-14T17:46:26;5.35;;;1.92;;
45762;SDS011;37512;52.408;13.356;2023-03-14T17:50:27;2.33;;;1.63;;
45762;SDS011;37512;52.408;13.356;2023-03-14T17:54:29;5.20;;;2.65;;
45762;SDS011;37512;52.408;13.356;2023-03-14T17:58:30;3.50;;;1.20;;
45762;SDS011;37512;52.408;13.356;2023-03-14T18:02:36;3.15;;;1.83;;
45762;SDS011;37512;52.408;13.356;2023-03-14T18:06:38;4.18;;;1.85;;
45762;SDS011;37512;52.408;13.356;2023-03-14T18:10:40;3.22;;;1.90;;
45762;SDS011;37512;52.408;13.356;2023-03-14T18:14:42;4.65;;;1.90;;
45762;SDS011;37512;52.408;13.356;2023-03-14T18:18:45;1.63;;;1.15;;
45762;SDS011;37512;52.408;13.356;2023-03-14T18:22:49;4.25;;;1.23;;
45762;SDS011;37512;52.408;13.356;2023-03-14T18:26:50;2.13;;;1.65;;
45762;SDS011;37512;52.408;13.356;2023-03-14T18:30:52;8.75;;;2.30;;
45762;SDS011;37512;52.408;13.356;2023-03-14T18:34:53;4.25;;;1.58;;
45762;SDS011;37512;52.408;13.356;2023-03-14T18:38:55;2.38;;;1.70;;
45762;SDS011;37512;52.408;13.356;2023-03-14T18:42:57;3.28;;;2.35;;
45762;SDS011;37512;52.408;13.356;2023-03-14T18:46:58;4.57;;;2.17;;
45762;SDS011;37512;52.408;13.356;2023-03-14T18:51:00;7.30;;;2.08;;
45762;SDS011;37512;52.408;13.356;2023-03-14T18:55:01;1.83;;;1.40;;
45762;SDS011;37512;52.408;13.356;2023-03-14T18:59:03;5.45;;;2.00;;
45762;SDS011;37512;52.408;13.356;2023-03-14T19:03:05;6.15;;;2.25;;
45762;SDS011;37512;52.408;13.356;2023-03-14T19:07:06;4.43;;;2.38;;
45762;SDS011;37512;52.408;13.356;2023-03-14T19:11:09;4.55;;;1.85;;
45762;SDS011;37512;52.408;13.356;2023-03-14T19:15:12;5.45;;;2.40;;
45762;SDS011;37512;52.408;13.356;2023-03-14T19:19:14;6.03;;;1.98;;
45762;SDS011;37512;52.408;13.356;2023-03-14T19:23:15;4.10;;;1.98;;
45762;SDS011;37512;52.408;13.356;2023-03-14T19:27:17;6.25;;;2.05;;
45762;SDS011;37512;52.408;13.356;2023-03-14T19:31:20;4.55;;;1.63;;
45762;SDS011;37512;52.408;13.356;2023-03-14T19:35:22;6.43;;;1.65;;
45762;SDS011;37512;52.408;13.356;2023-03-14T19:39:24;7.05;;;2.47;;
45762;SDS011;37512;52.408;13.356;2023-03-14T19:43:25;2.33;;;1.50;;
45762;SDS011;37512;52.408;13.356;2023-03-14T19:47:27;7.97;;;2.20;;
45762;SDS011;37512;52.408;13.356;2023-03-14T19:51:29;9.48;;;2.50;;
45762;SDS011;37512;52.408;13.356;2023-03-14T19:55:32;3.53;;;1.30;;
45762;SDS011;37512;52.408;13.356;2023-03-14T19:59:35;11.50;;;2.20;;
45762;SDS011;37512;52.408;13.356;2023-03-14T20:03:36;6.78;;;1.98;;
45762;SDS011;37512;52.408;13.356;2023-03-14T20:07:39;1.30;;;0.85;;
45762;SDS011;37512;52.408;13.356;2023-03-14T20:11:41;12.63;;;2.53;;
45762;SDS011;37512;52.408;13.356;2023-03-14T20:15:43;3.25;;;1.60;;
45762;SDS011;37512;52.408;13.356;2023-03-14T20:19:45;3.00;;;1.27;;
45762;SDS011;37512;52.408;13.356;2023-03-14T20:23:56;5.65;;;1.92;;
45762;SDS011;37512;52.408;13.356;2023-03-14T20:28:00;10.13;;;1.50;;
45762;SDS011;37512;52.408;13.356;2023-03-14T20:32:02;8.15;;;2.13;;
45762;SDS011;37512;52.408;13.356;2023-03-14T20:36:05;3.10;;;0.90;;
45762;SDS011;37512;52.408;13.356;2023-03-14T20:40:08;3.17;;;1.08;;
45762;SDS011;37512;52.408;13.356;2023-03-14T20:44:11;9.23;;;2.75;;
45762;SDS011;37512;52.408;13.356;2023-03-14T20:48:13;4.03;;;1.75;;
45762;SDS011;37512;52.408;13.356;2023-03-14T20:52:15;12.45;;;2.17;;
45762;SDS011;37512;52.408;13.356;2023-03-14T20:56:16;12.23;;;1.42;;
45762;SDS011;37512;52.408;13.356;2023-03-14T21:00:18;4.60;;;1.50;;
45762;SDS011;37512;52.408;13.356;2023-03-14T21:04:20;4.63;;;1.30;;
45762;SDS011;37512;52.408;13.356;2023-03-14T21:08:22;2.97;;;0.85;;
45762;SDS011;37512;52.408;13.356;2023-03-14T21:12:25;4.88;;;1.48;;
45762;SDS011;37512;52.408;13.356;2023-03-14T21:16:26;1.00;;;0.85;;
45762;SDS011;37512;52.408;13.356;2023-03-14T21:20:28;1.88;;;1.23;;
45762;SDS011;37512;52.408;13.356;2023-03-14T21:24:30;8.10;;;1.45;;
45762;SDS011;37512;52.408;13.356;2023-03-14T21:28:32;4.93;;;1.27;;
45762;SDS011;37512;52.408;13.356;2023-03-14T21:32:34;8.57;;;2.33;;
45762;SDS011;37512;52.408;13.356;2023-03-14T21:36:35;4.18;;;2.25;;
45762;SDS011;37512;52.408;13.356;2023-03-14T21:40:37;2.97;;;2.05;;
45762;SDS011;37512;52.408;13.356;2023-03-14T21:44:39;13.50;;;2.33;;
45762;SDS011;37512;52.408;13.356;2023-03-14T21:48:46;4.85;;;1.80;;
45762;SDS011;37512;52.408;13.356;2023-03-14T21:52:48;3.13;;;1.00;;
45762;SDS011;37512;52.408;13.356;2023-03-14T21:56:51;3.92;;;1.25;;
45762;SDS011;37512;52.408;13.356;2023-03-14T22:01:01;3.97;;;1.40;;
45762;SDS011;37512;52.408;13.356;2023-03-14T22:05:06;3.65;;;1.83;;
45762;SDS011;37512;52.408;13.356;2023-03-14T22:09:09;4.65;;;2.22;;
45762;SDS011;37512;52.408;13.356;2023-03-14T22:13:12;3.75;;;1.20;;
45762;SDS011;37512;52.408;13.356;2023-03-14T22:17:14;6.88;;;1.55;;
45762;SDS011;37512;52.408;13.356;2023-03-14T22:21:16;5.50;;;1.55;;
45762;SDS011;37512;52.408;13.356;2023-03-14T22:25:18;3.55;;;1.52;;
45762;SDS011;37512;52.408;13.356;2023-03-14T22:29:20;8.70;;;1.70;;
45762;SDS011;37512;52.408;13.356;2023-03-14T22:33:22;6.80;;;2.15;;
45762;SDS011;37512;52.408;13.356;2023-03-14T22:37:23;4.45;;;1.30;;
45762;SDS011;37512;52.408;13.356;2023-03-14T22:41:25;6.28;;;1.48;;
45762;SDS011;37512;52.408;13.356;2023-03-14T22:45:27;6.03;;;1.08;;
45762;SDS011;37512;52.408;13.356;2023-03-14T22:49:29;6.43;;;2.03;;
45762;SDS011;37512;52.408;13.356;2023-03-14T22:53:31;7.07;;;1.63;;
45762;SDS011;37512;52.408;13.356;2023-03-14T22:57:33;7.05;;;1.45;;
45762;SDS011;37512;52.408;13.356;2023-03-14T23:01:34;6.53;;;1.75;;
45762;SDS011;37512;52.408;13.356;2023-03-14T23:05:36;5.35;;;1.90;;
45762;SDS011;37512;52.408;13.356;2023-03-14T23:09:38;5.00;;;2.03;;
45762;SDS011;37512;52.408;13.356;2023-03-14T23:13:40;8.20;;;1.58;;
45762;SDS011;37512;52.408;13.356;2023-03-14T23:17:43;5.50;;;1.58;;
45762;SDS011;37512;52.408;13.356;2023-03-14T23:21:45;4.55;;;1.60;;
45762;SDS011;37512;52.408;13.356;2023-03-14T23:25:46;8.13;;;1.95;;
45762;SDS011;37512;52.408;13.356;2023-03-14T23:29:54;8.32;;;1.40;;
45762;SDS011;37512;52.408;13.356;2023-03-14T23:33:55;7.57;;;1.30;;
45762;SDS011;37512;52.408;13.356;2023-03-14T23:37:57;6.20;;;2.08;;
45762;SDS011;37512;52.408;13.356;2023-03-14T23:41:58;8.65;;;2.08;;
45762;SDS011;37512;52.408;13.356;2023-03-14T23:46:01;7.25;;;1.98;;
45762;SDS011;37512;52.408;13.356;2023-03-14T23:50:02;4.70;;;1.48;;
45762;SDS011;37512;52.408;13.356;2023-03-14T23:54:04;4.78;;;1.67;;
45762;SDS011;37512;52.408;13.356;2023-03-14T23:58:05;7.28;;;1.95;;
